Rio Rancho, NM (87124)

6:43 AM MST on November 28, 2014 (GMT -0700)
Western Hills | Change Station
CLOSE
Current Station
Personal Weather Station
Location: Rio Rancho, NM
Elevation: 5486 ft
Nearby Weather Stations

Elev 5486 ft 35.26 °N, 106.69 °W | Updated 0 second ago

Partly Cloudy
Partly Cloudy
28.9 °F
Feels Like 29 °F
N
0.0
Wind Variable Wind from North
Gusts 0.0 mph

Today
High -- | Low -- °F
--% Chance of Precip.
Yesterday
High -- | Low -- °F
Precip. -- in
6:54 AM 4:55 PM
Waxing Crescent, 40% visible
Pressure 30.29 in
Visibility 10.0 miles
Clouds Clear
Windchill 29 °F
Dew Point 17 °F
Humidity 60%
Rainfall 0.00 in
Snow Depth Not available.
UV 0 out of 12
Pollen 2.50 out of 12
Air Quality Not available.
Flu Activity Not available.
METAR KAEG 281253Z 00000KT 10SM SKC M05/M11 A3029

More Conditions Fewer Conditions

Pressure 30.29 in
Visibility 10.0 miles
Clouds Clear
Windchill 29 °F
Dew Point 17 °F
Humidity 60%
Rainfall 0.00 in
Snow Depth Not available.
UV 0 out of 12
Pollen 2.50 out of 12
Air Quality Not available.
Flu Activity Not available.
METAR KAEG 281253Z 00000KT 10SM SKC M05/M11 A3029

More Conditions Fewer Conditions

10-Day Weather Forecast

Almanac

Astronomy

Nov. 28, 2014 Rise Set
Actual Time
Civil Twilight
Nautical Twilight
Astronomical Twilight
Moon
Length of Visible Light
Length of Day
Tomorrow will be .
, % of the Moon is Illuminated

Today's Extremes

State Highs State Lows

Community

WunderPhotos

Upload Photos

1,774,210 photos uploaded!

WunderBlogs® & News

Nearby

Air Quality

  Air Quality AQ Index Pollutant
Not available.

Snow Depth

Station Depth Elevation

Earthquake Activity

City Distance Mag. Time & Date
Minimum magnitude displayed is 2.5.

Coastal Water Temperatures

Place Temperature

Nearby Weather Stations